createdAt,value
2023-05-24T00:04:04.386Z,17.30
2023-05-24T00:09:06.297Z,18.20
2023-05-24T00:14:08.090Z,13.80
2023-05-24T00:19:11.501Z,12.00
2023-05-24T00:24:14.289Z,16.60
2023-05-24T00:29:16.385Z,20.20
2023-05-24T00:34:18.156Z,17.50
2023-05-24T00:39:20.231Z,11.80
2023-05-24T00:44:22.018Z,15.00
2023-05-24T00:49:24.349Z,20.50
2023-05-24T00:54:27.064Z,15.10
2023-05-24T00:59:29.236Z,15.00
2023-05-24T01:04:32.623Z,8.70
2023-05-24T01:15:10.619Z,14.80
2023-05-24T01:20:15.032Z,11.00
2023-05-24T01:26:01.934Z,12.80
2023-05-24T01:31:04.391Z,10.90
2023-05-24T01:36:06.933Z,14.50
2023-05-24T01:41:40.140Z,13.90
2023-05-24T01:46:41.941Z,14.10
2023-05-24T01:51:58.922Z,16.20
2023-05-24T01:57:04.990Z,15.60
2023-05-24T02:02:06.748Z,14.40
2023-05-24T02:07:08.585Z,17.10
2023-05-24T02:12:12.756Z,11.00
2023-05-24T02:17:14.587Z,16.60
2023-05-24T02:22:16.334Z,21.80
2023-05-24T02:27:18.214Z,13.70
2023-05-24T02:32:19.994Z,14.60
2023-05-24T02:37:21.821Z,15.70
2023-05-24T02:42:23.714Z,17.30
2023-05-24T02:47:27.174Z,18.30
2023-05-24T02:52:29.125Z,17.80
2023-05-24T02:57:34.171Z,17.70
2023-05-24T03:02:38.497Z,20.00
2023-05-24T03:07:41.254Z,17.40
2023-05-24T03:12:43.050Z,18.40
2023-05-24T03:17:45.178Z,19.20
2023-05-24T03:22:47.059Z,16.80
2023-05-24T03:27:49.236Z,17.90
2023-05-24T03:32:51.371Z,16.00
2023-05-24T03:37:53.506Z,12.90
2023-05-24T03:42:55.563Z,13.60
2023-05-24T03:48:06.571Z,10.50
2023-05-24T03:53:08.719Z,15.50
2023-05-24T03:58:10.459Z,11.90
2023-05-24T04:03:13.130Z,11.20
2023-05-24T04:08:15.100Z,10.40
2023-05-24T04:13:16.857Z,7.60
2023-05-24T04:18:18.734Z,4.80
2023-05-24T04:23:20.648Z,5.70
2023-05-24T04:28:23.632Z,5.60
2023-05-24T04:33:26.872Z,4.80
2023-05-24T04:38:29.880Z,4.70
2023-05-24T04:43:32.945Z,4.10
2023-05-24T04:48:34.675Z,3.60
2023-05-24T04:53:36.478Z,2.90
2023-05-24T04:58:39.426Z,4.60
2023-05-24T05:03:41.620Z,4.90
2023-05-24T05:08:43.742Z,11.20
2023-05-24T05:13:45.746Z,8.40
2023-05-24T05:18:47.673Z,8.40
2023-05-24T05:23:49.395Z,5.70
2023-05-24T05:28:51.065Z,6.90
2023-05-24T05:33:52.884Z,7.60
2023-05-24T05:38:54.906Z,6.30
2023-05-24T05:43:56.722Z,8.10
2023-05-24T05:48:58.409Z,4.60
2023-05-24T05:54:00.328Z,15.20
2023-05-24T05:59:02.243Z,7.20
2023-05-24T06:04:04.002Z,5.70
2023-05-24T06:09:06.058Z,6.00
2023-05-24T06:14:07.799Z,6.80
2023-05-24T06:19:09.501Z,10.00
2023-05-24T06:24:11.773Z,7.50
2023-05-24T06:29:14.025Z,8.50
2023-05-24T06:34:21.268Z,8.50
2023-05-24T06:39:25.207Z,22.30
2023-05-24T06:44:33.878Z,6.40
2023-05-24T06:49:36.246Z,7.20
2023-05-24T06:54:38.007Z,6.20
2023-05-24T06:59:39.778Z,7.00
2023-05-24T07:04:42.392Z,6.40
2023-05-24T07:09:44.492Z,7.90
2023-05-24T07:14:46.897Z,4.70
2023-05-24T07:19:48.629Z,4.30
2023-05-24T07:24:50.698Z,8.30
2023-05-24T07:29:52.496Z,7.20
2023-05-24T07:34:55.110Z,6.20
2023-05-24T07:39:56.825Z,6.90
2023-05-24T07:44:58.570Z,8.50
2023-05-24T07:50:00.501Z,9.60
2023-05-24T07:55:02.771Z,8.40
2023-05-24T08:00:10.687Z,7.90
2023-05-24T08:05:16.977Z,8.90
2023-05-24T08:10:19.341Z,8.70
2023-05-24T08:15:21.439Z,8.80
2023-05-24T08:20:23.555Z,4.90
2023-05-24T08:25:26.273Z,3.90
2023-05-24T08:30:28.019Z,5.30
2023-05-24T08:35:29.848Z,4.80
2023-05-24T08:40:31.821Z,4.70
2023-05-24T08:45:37.504Z,7.50
2023-05-24T08:50:39.997Z,7.00
2023-05-24T08:55:44.218Z,5.10
2023-05-24T09:00:46.638Z,5.00
2023-05-24T09:05:48.868Z,5.90
2023-05-24T09:10:55.646Z,6.00
2023-05-24T09:16:00.302Z,6.20
2023-05-24T09:21:02.166Z,5.10
2023-05-24T09:26:11.427Z,5.10
2023-05-24T09:31:13.851Z,6.20
2023-05-24T09:36:17.247Z,4.20
2023-05-24T09:41:20.657Z,4.60
2023-05-24T09:46:23.085Z,7.00
2023-05-24T09:51:26.270Z,8.10
2023-05-24T10:01:31.977Z,5.10
2023-05-24T10:06:38.647Z,5.00
2023-05-24T10:11:41.718Z,8.80
2023-05-24T10:16:43.434Z,9.60
2023-05-24T10:21:47.773Z,6.50
2023-05-24T10:26:50.928Z,7.80
2023-05-24T10:36:55.526Z,5.70
2023-05-24T10:41:57.942Z,8.40
2023-05-24T10:47:11.504Z,8.60
2023-05-24T10:52:13.707Z,8.20
2023-05-24T10:57:23.329Z,7.40
2023-05-24T11:02:28.397Z,8.70
2023-05-24T11:07:33.436Z,7.50
2023-05-24T11:12:38.880Z,8.50
2023-05-24T11:18:15.589Z,6.20
2023-05-24T11:23:18.003Z,7.00
2023-05-24T11:28:22.123Z,8.00
2023-05-24T11:33:24.464Z,7.10
2023-05-24T11:38:27.601Z,7.80
2023-05-24T11:43:31.337Z,5.10
2023-05-24T11:48:33.358Z,4.60
2023-05-24T11:53:35.081Z,9.10
2023-05-24T11:58:48.417Z,7.00
2023-05-24T12:03:53.561Z,8.50
2023-05-24T12:08:55.551Z,5.60
2023-05-24T12:13:58.678Z,10.30
2023-05-24T12:19:06.965Z,6.70
2023-05-24T12:24:13.995Z,8.70
2023-05-24T12:29:16.505Z,8.30
2023-05-24T12:34:20.077Z,8.30
2023-05-24T12:39:24.345Z,8.70
2023-05-24T12:44:30.769Z,10.90
2023-05-24T12:49:32.914Z,6.60
2023-05-24T12:54:35.078Z,7.10
2023-05-24T12:59:37.293Z,7.20
2023-05-24T13:04:39.184Z,5.60
2023-05-24T13:09:41.199Z,5.90
2023-05-24T13:14:44.571Z,8.10
2023-05-24T13:19:47.373Z,7.90
2023-05-24T13:24:49.175Z,10.30
2023-05-24T13:30:01.016Z,8.50
2023-05-24T13:35:05.873Z,7.00
2023-05-24T13:40:11.093Z,7.10
2023-05-24T13:45:12.916Z,8.20
2023-05-24T13:50:14.881Z,8.70
2023-05-24T13:55:16.648Z,11.70
2023-05-24T14:00:19.197Z,8.60
2023-05-24T14:05:27.522Z,10.00
2023-05-24T14:10:30.180Z,8.90
2023-05-24T14:15:33.275Z,10.70
2023-05-24T14:25:41.427Z,6.90
2023-05-24T14:30:43.884Z,11.60
2023-05-24T14:35:46.561Z,7.50
2023-05-24T14:40:48.842Z,4.80
2023-05-24T14:45:50.653Z,9.00
2023-05-24T14:50:52.525Z,10.80
2023-05-24T14:55:54.605Z,6.30
2023-05-24T15:00:56.498Z,9.00
2023-05-24T15:05:59.037Z,11.40
2023-05-24T15:11:00.941Z,9.10
2023-05-24T15:16:02.733Z,18.60
2023-05-24T15:21:04.442Z,8.90
2023-05-24T15:26:06.552Z,10.00
2023-05-24T15:31:08.379Z,11.80
2023-05-24T15:36:14.294Z,5.00
2023-05-24T15:41:16.038Z,13.30
2023-05-24T15:46:20.733Z,9.50
2023-05-24T15:52:01.887Z,10.00
2023-05-24T15:56:44.145Z,9.20
2023-05-24T16:01:45.942Z,6.90
2023-05-24T16:06:47.905Z,6.80
2023-05-24T16:11:49.847Z,7.30
2023-05-24T16:16:51.675Z,7.00
2023-05-24T16:21:53.721Z,9.00
2023-05-24T16:26:57.572Z,9.80
2023-05-24T16:31:59.503Z,9.80
2023-05-24T16:37:01.548Z,6.20
2023-05-24T16:42:04.541Z,7.30
2023-05-24T16:47:06.513Z,5.40
2023-05-24T16:52:08.609Z,7.20
2023-05-24T16:57:10.449Z,10.50
2023-05-24T17:02:12.272Z,10.20
2023-05-24T17:07:14.130Z,21.40
2023-05-24T17:12:16.435Z,6.10
2023-05-24T17:17:18.315Z,7.50
2023-05-24T17:22:20.038Z,9.40
2023-05-24T17:27:22.602Z,9.60
2023-05-24T17:32:24.571Z,6.60
2023-05-24T17:37:26.728Z,7.30
2023-05-24T17:42:28.388Z,7.20
2023-05-24T17:47:30.096Z,12.20
2023-05-24T17:52:31.963Z,7.20
2023-05-24T17:57:33.675Z,9.80
2023-05-24T18:02:35.983Z,8.90
2023-05-24T18:07:37.797Z,10.00
2023-05-24T18:12:39.779Z,5.40
2023-05-24T18:17:48.740Z,7.10
2023-05-24T18:22:50.800Z,9.70
2023-05-24T18:27:52.580Z,7.80
2023-05-24T18:38:04.919Z,8.40
2023-05-24T18:43:06.792Z,8.80
2023-05-24T18:48:08.756Z,8.60
2023-05-24T18:53:10.696Z,9.80
2023-05-24T18:58:12.894Z,8.70
2023-05-24T19:03:14.810Z,10.00
2023-05-24T19:08:16.678Z,17.90
2023-05-24T19:13:18.515Z,10.10
2023-05-24T19:18:20.485Z,13.50
2023-05-24T19:23:22.389Z,11.90
2023-05-24T19:28:24.308Z,18.60
2023-05-24T19:33:26.096Z,12.50
2023-05-24T19:38:27.886Z,9.20
2023-05-24T19:43:29.746Z,10.50
2023-05-24T19:48:31.792Z,11.80
2023-05-24T19:53:33.620Z,13.40
2023-05-24T19:58:35.703Z,11.90
2023-05-24T20:03:37.460Z,16.70
2023-05-24T20:08:39.253Z,12.20
2023-05-24T20:13:41.064Z,14.50
2023-05-24T20:18:42.800Z,11.70
2023-05-24T20:23:44.827Z,17.30
2023-05-24T20:28:47.050Z,10.60
2023-05-24T20:33:51.621Z,11.80
2023-05-24T20:38:53.459Z,12.60
2023-05-24T20:43:55.180Z,15.80
2023-05-24T20:48:57.662Z,15.90
2023-05-24T20:53:59.898Z,19.50
2023-05-24T20:59:02.218Z,14.30
2023-05-24T21:04:04.077Z,15.20
2023-05-24T21:09:06.871Z,15.50
2023-05-24T21:14:14.545Z,13.40
2023-05-24T21:19:16.454Z,12.00
2023-05-24T21:24:18.193Z,12.80
2023-05-24T21:29:19.936Z,10.60
2023-05-24T21:34:21.773Z,13.40
2023-05-24T21:39:25.856Z,15.90
2023-05-24T21:44:28.329Z,17.20
2023-05-24T21:49:31.578Z,11.00
2023-05-24T21:54:33.291Z,14.20
2023-05-24T21:59:35.110Z,13.00
2023-05-24T22:04:36.891Z,14.00
2023-05-24T22:09:38.611Z,12.30
2023-05-24T22:14:40.311Z,9.30
2023-05-24T22:19:42.154Z,11.70
2023-05-24T22:24:43.859Z,12.60
2023-05-24T22:29:45.568Z,15.30
2023-05-24T22:34:47.407Z,14.20
2023-05-24T22:39:49.150Z,9.40
2023-05-24T22:44:50.894Z,12.20
2023-05-24T22:49:55.846Z,11.50
2023-05-24T22:54:57.599Z,10.40
2023-05-24T23:00:36.068Z,13.90
2023-05-24T23:05:37.805Z,9.30
2023-05-24T23:10:47.721Z,11.90
2023-05-24T23:15:54.367Z,16.60
2023-05-24T23:20:56.529Z,11.30
2023-05-24T23:25:58.250Z,14.30
2023-05-24T23:30:59.993Z,13.70
2023-05-24T23:36:02.108Z,11.40
2023-05-24T23:41:04.970Z,17.30
2023-05-24T23:46:08.245Z,13.80
2023-05-24T23:51:11.351Z,13.20
2023-05-24T23:56:13.111Z,16.20
